createdAt,value
2022-08-14T00:03:01.421Z,23.6
2022-08-14T00:18:01.362Z,23.5
2022-08-14T00:33:01.973Z,23.3
2022-08-14T00:48:01.318Z,22.9
2022-08-14T01:18:01.271Z,22.7
2022-08-14T01:33:01.253Z,22.4
2022-08-14T01:48:03.566Z,22.3
2022-08-14T02:03:01.200Z,22.1
2022-08-14T02:18:01.139Z,21.9
2022-08-14T02:33:01.149Z,21.5
2022-08-14T02:48:01.082Z,21.2
2022-08-14T03:03:01.408Z,21
2022-08-14T03:18:01.032Z,21.4
2022-08-14T03:33:01.033Z,21.3
2022-08-14T03:48:01.822Z,20.7
2022-08-14T04:03:00.974Z,20.5
2022-08-14T04:18:00.915Z,20.2
2022-08-14T04:33:05.552Z,20.2
2022-08-14T04:48:00.892Z,20.6
2022-08-14T05:03:00.864Z,20.5
2022-08-14T05:18:16.833Z,21.5
2022-08-14T05:33:00.832Z,21.9
2022-08-14T05:48:00.795Z,21.5
2022-08-14T06:03:00.760Z,21.4
2022-08-14T06:18:01.686Z,21.3
2022-08-14T06:33:03.817Z,19.6
2022-08-14T06:48:00.632Z,17.1
2022-08-14T07:03:00.649Z,16.3
2022-08-14T07:18:00.637Z,16
2022-08-14T07:33:00.589Z,15.7
2022-08-14T08:03:00.714Z,15.7
2022-08-14T08:18:01.294Z,15.2
2022-08-14T08:33:00.495Z,15
2022-08-14T08:48:00.472Z,14.7
2022-08-14T09:03:00.455Z,14.4
2022-08-14T09:18:00.525Z,14.3
2022-08-14T09:33:00.439Z,14.4
2022-08-14T09:48:00.412Z,14.6
2022-08-14T10:03:00.504Z,14.6
2022-08-14T10:18:00.309Z,14.8
2022-08-14T10:33:00.308Z,15
2022-08-14T10:48:09.252Z,15.2
2022-08-14T11:03:00.669Z,15.9
2022-08-14T11:18:01.125Z,16.6
2022-08-14T11:33:00.217Z,17.4
2022-08-14T11:48:13.140Z,18.3
2022-08-14T12:03:04.186Z,18.8
2022-08-14T12:18:00.124Z,19.5
2022-08-14T12:33:00.118Z,19.4
2022-08-14T12:48:00.063Z,19.9
2022-08-14T13:03:00.130Z,20.4
2022-08-14T13:17:59.995Z,21.7
2022-08-14T13:32:59.973Z,21.5
2022-08-14T13:47:59.941Z,21.3
2022-08-14T14:02:59.924Z,21.3
2022-08-14T14:17:59.893Z,21.4
2022-08-14T14:47:59.838Z,21.3
2022-08-14T15:02:59.937Z,20.4
2022-08-14T15:17:59.783Z,19.4
2022-08-14T15:32:59.793Z,18.9
2022-08-14T15:47:59.735Z,18.9
2022-08-14T16:02:59.741Z,19.3
2022-08-14T16:17:59.679Z,19.4
2022-08-14T16:33:02.200Z,19.9
2022-08-14T16:47:59.636Z,20.2
2022-08-14T17:02:59.637Z,20.2
2022-08-14T17:17:59.673Z,20.2
2022-08-14T17:33:03.323Z,20.3
2022-08-14T17:47:59.594Z,20.2
2022-08-14T18:02:59.525Z,20.1
2022-08-14T18:17:59.478Z,19.8
2022-08-14T18:32:59.471Z,19.6
2022-08-14T18:48:16.291Z,19.4
2022-08-14T19:02:59.431Z,19.3
2022-08-14T19:18:14.138Z,19.2
2022-08-14T19:33:03.630Z,19.3
2022-08-14T19:47:59.352Z,19.3
2022-08-14T20:03:01.951Z,19.1
2022-08-14T20:17:59.268Z,18.9
2022-08-14T20:32:59.278Z,18.8
2022-08-14T20:48:01.199Z,18.7
2022-08-14T21:02:59.222Z,18.4
2022-08-14T21:17:59.165Z,18.3
2022-08-14T21:32:59.175Z,18.4
2022-08-14T21:47:59.109Z,18.2
2022-08-14T22:02:59.116Z,18
2022-08-14T22:17:59.093Z,18
2022-08-14T22:33:00.131Z,18
2022-08-14T22:47:59.046Z,18
2022-08-14T23:02:59.992Z,18
2022-08-14T23:17:58.990Z,17.7
2022-08-14T23:47:58.912Z,17.8
